Time;durP1;ratioP1;P1;durP2;ratioP2;P2;SDS_P1;SDS_P2;PMS_P1;PMS_P2;Temp;Humidity;BMP_temperature;BMP_pressure;BME280_temperature;BME280_humidity;BME280_pressure;Samples;Min_cycle;Max_cycle;Signal;HPM_P1;HPM_P2
2021/12/14 00:00:53;;;;;;;1.60;1.20;;;;;;;;;;4951475;28;20213;-78
2021/12/14 00:03:19;;;;;;;1.57;1.20;;;;;;;;;;4944100;28;20199;-78
2021/12/14 00:05:45;;;;;;;0.87;0.87;;;;;;;;;;4930893;29;20248;-78
2021/12/14 00:08:13;;;;;;;3.93;1.03;;;;;;;;;;4934371;29;20186;-79
2021/12/14 00:13:16;;;;;;;1.07;1.00;;;;;;;;;;4957643;28;20192;-79
2021/12/14 00:15:41;;;;;;;1.10;1.00;;;;;;;;;;4935783;28;20205;-79
2021/12/14 00:18:10;;;;;;;2.57;1.00;;;;;;;;;;4951810;28;20213;-79
2021/12/14 00:20:56;;;;;;;2.97;0.83;;;;;;;;;;4954891;28;20237;-79
2021/12/14 00:26:12;;;;;;;6.13;1.10;;;;;;;;;;4949960;29;20240;-79
2021/12/14 00:28:37;;;;;;;4.00;0.97;;;;;;;;;;4936104;29;20193;-79
2021/12/14 00:31:04;;;;;;;1.50;1.03;;;;;;;;;;4941873;28;20190;-79
2021/12/14 00:33:31;;;;;;;0.80;0.80;;;;;;;;;;4962279;28;20209;-79
2021/12/14 00:35:58;;;;;;;2.77;0.90;;;;;;;;;;4941648;29;20181;-79
2021/12/14 00:38:24;;;;;;;1.10;1.00;;;;;;;;;;4940969;29;20181;-79
2021/12/14 00:40:52;;;;;;;1.50;0.90;;;;;;;;;;4951822;28;20191;-79
2021/12/14 00:43:17;;;;;;;1.43;0.93;;;;;;;;;;4941658;29;20248;-79
2021/12/14 00:45:43;;;;;;;8.33;1.10;;;;;;;;;;4934090;29;20182;-79
2021/12/14 00:48:09;;;;;;;2.53;1.90;;;;;;;;;;4934220;29;20322;-79
2021/12/14 00:50:35;;;;;;;9.17;1.90;;;;;;;;;;4940613;29;20201;-79
2021/12/14 00:53:00;;;;;;;14.33;1.70;;;;;;;;;;4953372;28;20178;-79
2021/12/14 00:55:30;;;;;;;7.93;1.67;;;;;;;;;;4935050;29;20233;-79
2021/12/14 00:57:55;;;;;;;8.10;1.60;;;;;;;;;;4936757;29;20186;-79
2021/12/14 01:00:23;;;;;;;2.50;1.40;;;;;;;;;;4938680;29;20219;-79
2021/12/14 01:02:49;;;;;;;16.00;2.47;;;;;;;;;;4935082;29;20258;-79
2021/12/14 01:05:17;;;;;;;23.93;2.33;;;;;;;;;;4936876;29;20258;-79
2021/12/14 01:07:43;;;;;;;14.03;2.13;;;;;;;;;;4936101;29;20197;-79
2021/12/14 01:10:19;;;;;;;9.23;1.67;;;;;;;;;;4950729;28;20293;-79
2021/12/14 01:12:50;;;;;;;4.40;1.33;;;;;;;;;;4934283;29;20193;-79
2021/12/14 01:18:01;;;;;;;5.90;1.50;;;;;;;;;;4934200;29;20197;-79
2021/12/14 01:20:31;;;;;;;4.70;1.23;;;;;;;;;;4933042;28;20224;-79
2021/12/14 01:23:01;;;;;;;7.57;1.47;;;;;;;;;;4934335;29;20293;-79
2021/12/14 01:25:34;;;;;;;9.40;1.50;;;;;;;;;;4936338;29;20211;-77
2021/12/14 01:28:05;;;;;;;7.43;1.50;;;;;;;;;;4933706;29;20186;-77
2021/12/14 01:31:03;;;;;;;8.60;1.70;;;;;;;;;;4935562;29;20245;-76
2021/12/14 01:33:29;;;;;;;6.23;1.33;;;;;;;;;;4941924;29;20198;-76
2021/12/14 01:35:55;;;;;;;3.97;1.70;;;;;;;;;;4950889;28;20278;-77
2021/12/14 01:38:34;;;;;;;7.60;1.50;;;;;;;;;;4948853;29;20229;-77
2021/12/14 01:41:05;;;;;;;1.77;0.97;;;;;;;;;;4929671;29;20224;-77
2021/12/14 01:43:50;;;;;;;8.63;1.63;;;;;;;;;;4942848;29;20477;-77
2021/12/14 01:46:18;;;;;;;3.60;0.93;;;;;;;;;;4932054;29;20195;-77
2021/12/14 01:48:44;;;;;;;1.93;1.00;;;;;;;;;;4935026;29;20182;-77
2021/12/14 01:51:10;;;;;;;3.93;1.27;;;;;;;;;;4937655;29;20193;-77
2021/12/14 01:53:37;;;;;;;1.47;0.90;;;;;;;;;;4934023;29;20252;-77
2021/12/14 01:56:04;;;;;;;1.27;1.17;;;;;;;;;;4933194;29;20182;-77
2021/12/14 01:58:36;;;;;;;0.93;0.90;;;;;;;;;;4934109;29;20178;-77
2021/12/14 02:01:05;;;;;;;0.80;0.80;;;;;;;;;;4938433;29;20182;-77
2021/12/14 02:03:32;;;;;;;0.70;0.70;;;;;;;;;;4941037;28;20185;-77
2021/12/14 02:05:58;;;;;;;1.70;1.17;;;;;;;;;;4951639;28;20173;-77
2021/12/14 02:08:30;;;;;;;5.07;1.00;;;;;;;;;;4935116;29;20186;-77
2021/12/14 02:10:56;;;;;;;1.70;1.07;;;;;;;;;;4934123;29;20244;-77
2021/12/14 02:13:23;;;;;;;1.60;0.97;;;;;;;;;;4936460;29;20174;-76
2021/12/14 02:15:49;;;;;;;1.50;1.20;;;;;;;;;;4933418;29;20182;-77
2021/12/14 02:18:17;;;;;;;1.20;1.10;;;;;;;;;;4931458;29;20197;-78
2021/12/14 02:20:44;;;;;;;1.70;0.87;;;;;;;;;;4936346;29;20235;-79
2021/12/14 02:23:09;;;;;;;7.27;4.57;;;;;;;;;;4942431;28;20190;-79
2021/12/14 02:25:35;;;;;;;8.77;4.57;;;;;;;;;;4936186;29;20193;-79
2021/12/14 02:28:03;;;;;;;3.30;1.83;;;;;;;;;;4947538;29;20186;-79
2021/12/14 02:30:30;;;;;;;1.20;1.10;;;;;;;;;;4946402;28;20197;-79
2021/12/14 02:32:55;;;;;;;1.43;1.30;;;;;;;;;;4945516;28;20277;-79
2021/12/14 02:35:24;;;;;;;0.83;0.83;;;;;;;;;;4949537;28;20242;-79
2021/12/14 02:37:49;;;;;;;1.77;1.00;;;;;;;;;;4932948;29;20182;-79
2021/12/14 02:40:19;;;;;;;1.40;1.20;;;;;;;;;;4947151;28;20422;-79
2021/12/14 02:42:46;;;;;;;1.30;1.07;;;;;;;;;;4932139;29;20208;-79
2021/12/14 02:45:11;;;;;;;0.87;0.87;;;;;;;;;;4956767;28;20188;-80
2021/12/14 02:47:36;;;;;;;0.90;0.90;;;;;;;;;;4961470;28;20204;-80
2021/12/14 02:50:03;;;;;;;1.07;0.97;;;;;;;;;;4957123;28;20233;-80
2021/12/14 02:52:34;;;;;;;2.47;1.53;;;;;;;;;;4953800;28;20186;-79
2021/12/14 02:55:02;;;;;;;1.33;1.20;;;;;;;;;;4939354;29;20228;-79
2021/12/14 02:57:30;;;;;;;2.50;1.13;;;;;;;;;;4941083;29;20220;-79
2021/12/14 02:59:56;;;;;;;1.03;0.93;;;;;;;;;;4938211;28;20185;-79
2021/12/14 03:02:23;;;;;;;1.30;1.20;;;;;;;;;;4961522;28;20204;-79
2021/12/14 03:04:52;;;;;;;1.20;1.10;;;;;;;;;;4931809;29;20186;-79
2021/12/14 03:07:21;;;;;;;1.10;1.00;;;;;;;;;;4957113;28;20180;-79
2021/12/14 03:12:22;;;;;;;1.10;1.00;;;;;;;;;;4953066;29;20276;-80
2021/12/14 03:14:49;;;;;;;1.17;1.10;;;;;;;;;;4938353;28;20583;-80
2021/12/14 03:17:14;;;;;;;1.67;1.20;;;;;;;;;;4935821;29;20189;-80
2021/12/14 03:19:40;;;;;;;0.80;0.80;;;;;;;;;;4939764;29;20181;-80
2021/12/14 03:22:19;;;;;;;1.20;1.07;;;;;;;;;;4938621;29;20256;-80
2021/12/14 03:24:44;;;;;;;1.00;1.00;;;;;;;;;;4937643;29;20189;-80
2021/12/14 03:27:09;;;;;;;1.27;1.17;;;;;;;;;;4953505;28;20178;-80
2021/12/14 03:29:35;;;;;;;1.30;1.20;;;;;;;;;;4933887;28;20188;-80
2021/12/14 03:32:00;;;;;;;1.40;1.03;;;;;;;;;;4930805;29;20280;-80
2021/12/14 03:34:28;;;;;;;1.10;1.10;;;;;;;;;;4938652;28;20209;-80
2021/12/14 03:36:59;;;;;;;1.10;1.07;;;;;;;;;;4937039;29;20182;-80
2021/12/14 03:39:26;;;;;;;1.10;1.10;;;;;;;;;;4942630;29;20245;-80
2021/12/14 03:41:53;;;;;;;2.30;1.30;;;;;;;;;;4935478;29;20188;-80
2021/12/14 03:44:23;;;;;;;1.87;1.20;;;;;;;;;;4947599;28;20230;-80
2021/12/14 03:46:52;;;;;;;1.23;1.10;;;;;;;;;;4949335;28;20188;-80
2021/12/14 03:49:20;;;;;;;0.60;0.60;;;;;;;;;;4941683;29;20265;-80
2021/12/14 03:51:45;;;;;;;1.00;0.73;;;;;;;;;;4933313;29;20256;-80
2021/12/14 03:54:13;;;;;;;0.20;0.20;;;;;;;;;;4933687;29;20237;-80
2021/12/14 03:56:38;;;;;;;0.27;0.20;;;;;;;;;;4951208;28;20186;-80
2021/12/14 03:59:04;;;;;;;0.33;0.33;;;;;;;;;;4933396;29;20174;-80
2021/12/14 04:01:32;;;;;;;0.60;0.60;;;;;;;;;;4932448;29;20178;-79
2021/12/14 04:04:00;;;;;;;0.50;0.50;;;;;;;;;;4946800;29;20213;-79
2021/12/14 04:06:27;;;;;;;1.83;0.83;;;;;;;;;;4933207;29;20192;-80
2021/12/14 04:08:52;;;;;;;10.63;1.60;;;;;;;;;;4948021;28;20182;-80
2021/12/14 04:11:17;;;;;;;4.50;1.03;;;;;;;;;;4932884;29;20237;-80
2021/12/14 04:13:46;;;;;;;8.10;2.00;;;;;;;;;;4932970;29;20216;-80
2021/12/14 04:16:12;;;;;;;9.83;1.80;;;;;;;;;;4934533;29;20174;-79
2021/12/14 04:18:38;;;;;;;1.17;1.07;;;;;;;;;;4929958;29;20178;-79
2021/12/14 04:21:03;;;;;;;0.90;0.90;;;;;;;;;;4947903;28;20178;-79
2021/12/14 04:23:31;;;;;;;2.10;1.80;;;;;;;;;;4934355;29;20182;-79
2021/12/14 04:25:58;;;;;;;2.30;2.10;;;;;;;;;;4946607;29;20439;-79
2021/12/14 04:28:25;;;;;;;2.47;2.13;;;;;;;;;;4952288;28;20182;-80
2021/12/14 04:30:50;;;;;;;1.87;1.77;;;;;;;;;;4949723;28;20209;-80
2021/12/14 04:33:17;;;;;;;1.70;1.60;;;;;;;;;;4948955;28;20265;-79
2021/12/14 04:35:43;;;;;;;1.50;1.40;;;;;;;;;;4933963;29;20245;-80
2021/12/14 04:38:16;;;;;;;1.40;1.30;;;;;;;;;;4932234;29;20197;-80
2021/12/14 04:52:15;;;;;;;1.30;1.20;;;;;;;;;;4911042;29;20212;-80
2021/12/14 04:54:47;;;;;;;1.70;1.50;;;;;;;;;;4927485;28;20401;-80
2021/12/14 04:57:21;;;;;;;1.53;1.30;;;;;;;;;;4954845;28;20193;-80
2021/12/14 04:59:47;;;;;;;2.10;1.67;;;;;;;;;;4943239;29;20263;-80
2021/12/14 05:02:15;;;;;;;1.20;1.10;;;;;;;;;;4935387;29;20185;-80
2021/12/14 05:04:41;;;;;;;1.60;1.50;;;;;;;;;;4936382;29;20198;-80
2021/12/14 05:10:03;;;;;;;1.30;1.20;;;;;;;;;;4945435;28;20208;-80
2021/12/14 05:12:30;;;;;;;1.00;1.00;;;;;;;;;;4939665;29;20194;-80
2021/12/14 05:14:56;;;;;;;0.47;0.47;;;;;;;;;;4955041;28;20300;-80
2021/12/14 05:17:23;;;;;;;1.00;0.90;;;;;;;;;;4951207;28;20204;-80
2021/12/14 05:19:52;;;;;;;1.77;1.13;;;;;;;;;;4940240;29;20325;-79
2021/12/14 05:22:19;;;;;;;0.53;0.53;;;;;;;;;;4940084;29;20178;-80
2021/12/14 05:24:47;;;;;;;0.70;0.70;;;;;;;;;;4951171;28;20182;-79
2021/12/14 05:27:15;;;;;;;3.40;1.00;;;;;;;;;;4936260;28;20215;-80
2021/12/14 05:29:41;;;;;;;1.37;1.13;;;;;;;;;;4935475;29;20196;-80
2021/12/14 05:32:07;;;;;;;2.83;2.00;;;;;;;;;;4953430;28;20185;-79
2021/12/14 05:34:33;;;;;;;2.13;1.90;;;;;;;;;;4937104;29;20229;-79
2021/12/14 05:36:59;;;;;;;7.13;2.13;;;;;;;;;;4939177;28;20193;-79
2021/12/14 05:39:44;;;;;;;3.10;2.43;;;;;;;;;;4937398;29;20204;-80
2021/12/14 05:44:42;;;;;;;47.67;9.07;;;;;;;;;;4951320;29;20245;-80
2021/12/14 05:47:10;;;;;;;4.37;3.97;;;;;;;;;;4952200;28;20188;-79
2021/12/14 05:49:36;;;;;;;8.07;4.67;;;;;;;;;;4952957;29;20277;-79
2021/12/14 05:52:06;;;;;;;15.37;5.43;;;;;;;;;;4951375;28;20194;-79
2021/12/14 05:54:31;;;;;;;6.23;4.00;;;;;;;;;;4942023;28;20209;-79
2021/12/14 05:56:58;;;;;;;10.60;5.80;;;;;;;;;;4952379;28;20177;-80
2021/12/14 05:59:25;;;;;;;8.53;5.47;;;;;;;;;;4933714;29;20189;-80
2021/12/14 06:01:51;;;;;;;12.77;6.33;;;;;;;;;;4936671;28;20205;-80
2021/12/14 06:04:17;;;;;;;6.27;4.83;;;;;;;;;;4939175;28;20193;-80
2021/12/14 06:06:45;;;;;;;7.77;4.60;;;;;;;;;;4935100;28;20228;-80
2021/12/14 06:09:18;;;;;;;13.87;7.40;;;;;;;;;;4930717;28;20186;-79
2021/12/14 06:11:45;;;;;;;17.47;7.63;;;;;;;;;;4950138;28;20180;-79
2021/12/14 06:14:12;;;;;;;24.97;9.30;;;;;;;;;;4949357;28;20201;-80
2021/12/14 06:16:38;;;;;;;16.83;8.77;;;;;;;;;;4947591;28;20185;-79
2021/12/14 06:19:14;;;;;;;23.13;11.70;;;;;;;;;;4937220;28;20237;-79
2021/12/14 06:21:40;;;;;;;17.37;7.97;;;;;;;;;;4956374;28;20185;-79
2021/12/14 06:24:07;;;;;;;17.87;7.87;;;;;;;;;;4940379;29;20177;-79
2021/12/14 06:26:37;;;;;;;14.63;7.07;;;;;;;;;;4939311;29;20245;-79
2021/12/14 06:29:04;;;;;;;13.07;6.83;;;;;;;;;;4947303;29;20189;-79
2021/12/14 06:31:29;;;;;;;9.30;5.33;;;;;;;;;;4939304;29;20273;-79
2021/12/14 06:33:54;;;;;;;5.53;3.13;;;;;;;;;;4938585;29;20290;-79
2021/12/14 06:36:39;;;;;;;3.33;2.60;;;;;;;;;;4945494;28;20286;-79
2021/12/14 06:39:06;;;;;;;3.03;2.47;;;;;;;;;;4937304;29;20277;-79
2021/12/14 06:41:31;;;;;;;13.43;9.53;;;;;;;;;;4934553;29;20182;-79
2021/12/14 06:43:57;;;;;;;22.50;17.57;;;;;;;;;;4932835;29;20235;-79
2021/12/14 06:46:26;;;;;;;10.77;8.40;;;;;;;;;;4933289;29;20205;-79
2021/12/14 06:48:52;;;;;;;5.03;3.30;;;;;;;;;;4932262;29;20201;-79
2021/12/14 06:51:21;;;;;;;5.60;3.77;;;;;;;;;;4927132;29;20213;-79
2021/12/14 06:53:49;;;;;;;6.83;5.63;;;;;;;;;;4933202;29;20198;-78
2021/12/14 06:56:15;;;;;;;7.87;5.53;;;;;;;;;;4933707;29;20181;-78
2021/12/14 06:58:49;;;;;;;8.83;7.27;;;;;;;;;;4932997;29;20175;-78
2021/12/14 07:01:17;;;;;;;7.23;4.97;;;;;;;;;;4929446;29;20181;-78
2021/12/14 07:03:44;;;;;;;6.10;5.10;;;;;;;;;;4933070;29;20178;-79
2021/12/14 07:06:22;;;;;;;3.10;2.50;;;;;;;;;;4932928;29;20183;-78
2021/12/14 07:08:48;;;;;;;6.00;4.60;;;;;;;;;;4935886;29;20186;-78
2021/12/14 07:11:17;;;;;;;4.53;3.53;;;;;;;;;;4923832;29;20197;-78
2021/12/14 07:13:43;;;;;;;10.20;6.77;;;;;;;;;;4944085;29;20187;-78
2021/12/14 07:16:19;;;;;;;9.77;7.60;;;;;;;;;;4947959;28;20244;-78
2021/12/14 07:18:45;;;;;;;7.73;5.50;;;;;;;;;;4943015;28;20507;-78
2021/12/14 07:21:11;;;;;;;6.33;5.23;;;;;;;;;;4941377;29;20280;-79
2021/12/14 07:23:37;;;;;;;7.70;4.17;;;;;;;;;;4931704;29;20193;-78
2021/12/14 07:26:08;;;;;;;6.13;3.93;;;;;;;;;;4947840;29;20188;-78
2021/12/14 07:28:36;;;;;;;4.13;2.30;;;;;;;;;;4926443;29;20179;-78
2021/12/14 07:31:03;;;;;;;1.57;1.43;;;;;;;;;;4928035;29;20193;-78
2021/12/14 07:33:33;;;;;;;2.17;1.40;;;;;;;;;;4937743;29;20818;-78
2021/12/14 07:36:04;;;;;;;2.17;1.97;;;;;;;;;;4926391;29;20179;-78
2021/12/14 07:38:34;;;;;;;2.47;1.80;;;;;;;;;;4925268;29;20183;-78
2021/12/14 07:41:04;;;;;;;2.70;1.73;;;;;;;;;;4926883;29;20209;-78
2021/12/14 07:43:34;;;;;;;4.17;2.20;;;;;;;;;;4934082;28;20246;-78
2021/12/14 07:46:00;;;;;;;3.47;2.70;;;;;;;;;;4945014;29;20193;-78
2021/12/14 07:48:43;;;;;;;4.93;3.10;;;;;;;;;;4932641;29;20186;-77
2021/12/14 07:51:08;;;;;;;4.23;2.80;;;;;;;;;;4932427;29;20186;-78
2021/12/14 07:54:00;;;;;;;4.60;2.30;;;;;;;;;;4933843;29;20177;-75
2021/12/14 07:56:28;;;;;;;2.97;2.23;;;;;;;;;;4927202;29;20202;-75
2021/12/14 07:58:54;;;;;;;4.43;1.93;;;;;;;;;;4934773;29;20187;-76
2021/12/14 08:01:19;;;;;;;1.80;1.50;;;;;;;;;;4930946;29;20189;-76
2021/12/14 08:03:45;;;;;;;2.07;1.63;;;;;;;;;;4930613;29;20194;-75
2021/12/14 08:06:12;;;;;;;4.37;2.30;;;;;;;;;;4937407;28;20187;-76
2021/12/14 08:08:56;;;;;;;3.23;2.20;;;;;;;;;;4941571;29;20189;-76
2021/12/14 08:14:05;;;;;;;1.50;1.03;;;;;;;;;;4934871;29;20277;-76
2021/12/14 08:16:41;;;;;;;1.50;1.40;;;;;;;;;;4931428;29;20178;-76
2021/12/14 08:19:06;;;;;;;0.83;0.80;;;;;;;;;;4927814;29;20182;-75
2021/12/14 08:21:31;;;;;;;3.00;1.00;;;;;;;;;;4933399;29;20182;-75
2021/12/14 08:24:06;;;;;;;1.43;0.90;;;;;;;;;;4943757;29;20186;-76
2021/12/14 08:26:39;;;;;;;0.90;0.80;;;;;;;;;;4944235;29;20182;-76
2021/12/14 08:29:04;;;;;;;1.03;0.90;;;;;;;;;;4940722;29;20198;-76
2021/12/14 08:31:37;;;;;;;1.77;1.60;;;;;;;;;;4942344;29;20205;-76
2021/12/14 08:34:06;;;;;;;2.90;2.50;;;;;;;;;;4938258;29;20209;-76
2021/12/14 08:36:36;;;;;;;3.57;2.70;;;;;;;;;;4936576;29;20174;-76
2021/12/14 08:39:05;;;;;;;3.53;2.97;;;;;;;;;;4922434;29;20178;-75
2021/12/14 08:41:30;;;;;;;5.70;3.33;;;;;;;;;;4935786;29;20178;-76
2021/12/14 08:43:57;;;;;;;14.67;12.80;;;;;;;;;;4929065;29;20241;-82
2021/12/14 08:46:31;;;;;;;9.40;7.20;;;;;;;;;;4930524;29;20190;-81
2021/12/14 08:48:58;;;;;;;9.13;6.93;;;;;;;;;;4933717;29;20188;-77
2021/12/14 08:51:25;;;;;;;8.97;6.83;;;;;;;;;;4932176;29;20178;-77
2021/12/14 08:53:53;;;;;;;29.90;17.67;;;;;;;;;;4936134;29;20210;-77
2021/12/14 08:56:19;;;;;;;23.60;14.50;;;;;;;;;;4933134;29;20182;-77
2021/12/14 08:58:45;;;;;;;18.97;13.10;;;;;;;;;;4935361;29;20289;-77
2021/12/14 09:01:15;;;;;;;18.57;13.60;;;;;;;;;;4933183;29;20182;-77
2021/12/14 09:03:45;;;;;;;37.30;24.13;;;;;;;;;;4935812;29;20178;-76
2021/12/14 09:06:13;;;;;;;41.10;24.20;;;;;;;;;;4934118;29;20175;-77
2021/12/14 09:08:40;;;;;;;24.37;11.93;;;;;;;;;;4931221;29;20178;-77
2021/12/14 09:11:07;;;;;;;27.97;13.27;;;;;;;;;;4933143;29;20174;-77
2021/12/14 09:13:32;;;;;;;6.97;4.57;;;;;;;;;;4931786;29;20206;-77
2021/12/14 09:15:59;;;;;;;5.00;3.73;;;;;;;;;;4935187;29;20178;-77
2021/12/14 09:18:25;;;;;;;3.13;2.37;;;;;;;;;;4935961;29;20183;-77
2021/12/14 09:20:56;;;;;;;2.13;1.87;;;;;;;;;;4935118;29;20186;-77
2021/12/14 09:23:23;;;;;;;2.67;1.87;;;;;;;;;;4936698;29;20179;-77
2021/12/14 09:25:50;;;;;;;5.67;3.90;;;;;;;;;;4934849;29;20183;-77
2021/12/14 09:28:15;;;;;;;7.30;4.90;;;;;;;;;;4949456;29;20181;-77
2021/12/14 09:30:44;;;;;;;5.63;3.70;;;;;;;;;;4935033;29;20193;-77
2021/12/14 09:33:10;;;;;;;5.40;4.50;;;;;;;;;;4931339;29;20186;-77
2021/12/14 09:35:36;;;;;;;6.90;4.73;;;;;;;;;;4951757;28;20207;-77
2021/12/14 09:38:05;;;;;;;15.37;9.07;;;;;;;;;;4947088;28;20178;-77
2021/12/14 09:40:34;;;;;;;6.77;5.30;;;;;;;;;;4945491;28;20213;-77
2021/12/14 09:42:59;;;;;;;3.00;2.67;;;;;;;;;;4932473;29;20217;-77
2021/12/14 09:45:33;;;;;;;3.00;2.70;;;;;;;;;;4934180;29;20505;-77
2021/12/14 09:47:59;;;;;;;2.57;2.37;;;;;;;;;;4937384;29;20325;-77
2021/12/14 09:50:30;;;;;;;1.50;1.40;;;;;;;;;;4938008;29;20248;-77
2021/12/14 09:52:57;;;;;;;3.47;1.57;;;;;;;;;;4935488;29;20189;-77
2021/12/14 09:55:24;;;;;;;4.00;2.23;;;;;;;;;;4939380;29;20530;-76
2021/12/14 09:57:57;;;;;;;1.13;1.03;;;;;;;;;;4949944;29;20185;-77
2021/12/14 10:00:26;;;;;;;0.87;0.87;;;;;;;;;;4945888;29;20179;-77
2021/12/14 10:02:53;;;;;;;0.87;0.80;;;;;;;;;;4936965;29;20189;-77
2021/12/14 10:05:21;;;;;;;1.10;1.00;;;;;;;;;;4951994;28;20188;-77
2021/12/14 10:07:48;;;;;;;1.83;1.00;;;;;;;;;;4951954;28;20193;-77
2021/12/14 10:10:17;;;;;;;1.40;1.30;;;;;;;;;;4949843;28;20275;-77
2021/12/14 10:12:49;;;;;;;1.30;1.07;;;;;;;;;;4933984;29;20233;-77
2021/12/14 10:15:20;;;;;;;0.97;0.97;;;;;;;;;;4951768;28;20205;-76
2021/12/14 10:17:47;;;;;;;2.10;1.00;;;;;;;;;;4943453;28;20185;-77
2021/12/14 10:20:15;;;;;;;1.13;1.03;;;;;;;;;;4954263;29;20246;-76
2021/12/14 10:22:40;;;;;;;0.80;0.70;;;;;;;;;;4945628;29;20186;-77
2021/12/14 10:25:08;;;;;;;0.90;0.90;;;;;;;;;;4942962;29;20190;-77
2021/12/14 10:27:34;;;;;;;0.80;0.80;;;;;;;;;;4941524;28;20207;-77
2021/12/14 10:30:01;;;;;;;2.73;1.00;;;;;;;;;;4929616;29;20184;-77
2021/12/14 10:32:29;;;;;;;1.23;1.13;;;;;;;;;;4949125;28;20184;-77
2021/12/14 10:34:58;;;;;;;1.00;0.97;;;;;;;;;;4953155;29;20207;-77
2021/12/14 10:37:55;;;;;;;0.90;0.77;;;;;;;;;;4928365;29;20205;-77
2021/12/14 10:43:13;;;;;;;2.33;1.70;;;;;;;;;;4953417;29;20206;-77
2021/12/14 10:45:41;;;;;;;4.70;2.93;;;;;;;;;;4941626;29;20197;-77
2021/12/14 10:48:06;;;;;;;2.60;2.40;;;;;;;;;;4948375;29;20177;-77
2021/12/14 10:50:33;;;;;;;4.13;3.23;;;;;;;;;;4935705;29;20242;-76
2021/12/14 10:53:03;;;;;;;3.20;2.90;;;;;;;;;;4938313;29;20216;-77
2021/12/14 10:55:33;;;;;;;2.90;2.60;;;;;;;;;;4947923;29;20206;-77
2021/12/14 10:57:58;;;;;;;2.90;2.67;;;;;;;;;;4950817;29;20185;-76
2021/12/14 11:00:31;;;;;;;3.60;3.33;;;;;;;;;;4930438;29;20183;-77
2021/12/14 11:03:04;;;;;;;2.17;2.07;;;;;;;;;;4929895;29;20176;-77
2021/12/14 11:05:30;;;;;;;1.77;1.63;;;;;;;;;;4949064;28;20191;-77
2021/12/14 11:07:58;;;;;;;1.57;1.47;;;;;;;;;;4938349;28;20185;-77
2021/12/14 11:10:27;;;;;;;1.50;1.40;;;;;;;;;;4954313;28;20183;-77
2021/12/14 11:12:54;;;;;;;0.83;0.83;;;;;;;;;;4935629;29;20192;-77
2021/12/14 11:15:25;;;;;;;1.53;1.40;;;;;;;;;;4953450;28;20222;-77
2021/12/14 11:20:46;;;;;;;0.50;0.50;;;;;;;;;;4949922;29;20203;-77
2021/12/14 11:23:11;;;;;;;0.80;0.80;;;;;;;;;;4932595;28;20170;-77
2021/12/14 11:25:51;;;;;;;0.50;0.50;;;;;;;;;;4939376;29;20528;-76
2021/12/14 11:28:35;;;;;;;0.60;0.60;;;;;;;;;;4949805;28;20188;-77
2021/12/14 11:31:06;;;;;;;0.77;0.77;;;;;;;;;;4955288;28;20197;-76
2021/12/14 11:33:33;;;;;;;0.70;0.37;;;;;;;;;;4950822;29;20209;-77
2021/12/14 11:35:59;;;;;;;0.50;0.50;;;;;;;;;;4934085;29;20206;-77
2021/12/14 11:38:28;;;;;;;0.60;0.60;;;;;;;;;;4940821;28;20327;-77
2021/12/14 11:40:54;;;;;;;0.40;0.40;;;;;;;;;;4948699;28;20183;-77
2021/12/14 11:43:22;;;;;;;0.47;0.47;;;;;;;;;;4935190;29;20214;-77
2021/12/14 11:45:48;;;;;;;0.63;0.50;;;;;;;;;;4932893;28;20214;-77
2021/12/14 11:48:14;;;;;;;0.77;0.70;;;;;;;;;;4947700;28;20227;-77
2021/12/14 11:50:44;;;;;;;0.73;0.73;;;;;;;;;;4931585;29;20179;-76
2021/12/14 11:53:13;;;;;;;0.60;0.60;;;;;;;;;;4939529;28;20196;-77
2021/12/14 11:55:47;;;;;;;0.90;0.60;;;;;;;;;;4944419;28;20292;-77
2021/12/14 11:58:18;;;;;;;0.70;0.60;;;;;;;;;;4948486;28;20200;-77
2021/12/14 12:00:46;;;;;;;0.50;0.50;;;;;;;;;;4947865;29;20183;-77
2021/12/14 12:03:27;;;;;;;0.50;0.50;;;;;;;;;;4946430;28;20182;-76
2021/12/14 12:06:05;;;;;;;0.50;0.50;;;;;;;;;;4935994;28;20183;-77
2021/12/14 12:11:16;;;;;;;0.67;0.67;;;;;;;;;;4950387;28;20195;-76
2021/12/14 12:13:42;;;;;;;1.80;0.70;;;;;;;;;;4951579;28;20190;-76
2021/12/14 12:16:12;;;;;;;0.57;0.57;;;;;;;;;;4950575;28;20212;-76
2021/12/14 12:18:37;;;;;;;0.60;0.60;;;;;;;;;;4952859;28;20233;-76
2021/12/14 12:21:03;;;;;;;0.90;0.57;;;;;;;;;;4939589;29;20349;-76
2021/12/14 12:23:29;;;;;;;0.90;0.67;;;;;;;;;;4942848;28;20210;-76
2021/12/14 12:26:01;;;;;;;1.00;0.90;;;;;;;;;;4942580;29;20187;-76
2021/12/14 12:28:26;;;;;;;0.70;0.70;;;;;;;;;;4948051;28;20189;-77
2021/12/14 12:31:05;;;;;;;0.60;0.60;;;;;;;;;;4933632;28;20182;-77
2021/12/14 12:33:35;;;;;;;3.60;3.13;;;;;;;;;;4937457;28;20191;-77
2021/12/14 12:36:06;;;;;;;0.90;0.90;;;;;;;;;;4931177;29;20215;-76
2021/12/14 12:38:31;;;;;;;2.13;1.90;;;;;;;;;;4942092;28;20179;-77
2021/12/14 12:41:18;;;;;;;3.20;1.90;;;;;;;;;;4951962;28;20308;-77
2021/12/14 12:43:48;;;;;;;1.97;1.87;;;;;;;;;;4922575;29;20231;-77
2021/12/14 12:46:29;;;;;;;0.77;0.77;;;;;;;;;;4927096;29;20187;-77
2021/12/14 12:49:14;;;;;;;1.60;1.20;;;;;;;;;;4931523;29;20242;-77
2021/12/14 12:51:51;;;;;;;1.40;1.20;;;;;;;;;;4929114;29;20262;-77
2021/12/14 12:54:19;;;;;;;0.90;0.90;;;;;;;;;;4943802;29;20228;-76
2021/12/14 12:56:47;;;;;;;4.37;2.00;;;;;;;;;;4932401;29;20200;-77
2021/12/14 12:59:15;;;;;;;1.10;0.90;;;;;;;;;;4946127;29;20188;-77
2021/12/14 13:01:40;;;;;;;1.73;1.50;;;;;;;;;;4950752;28;20187;-76
2021/12/14 13:04:06;;;;;;;2.07;1.70;;;;;;;;;;4930259;29;20381;-76
2021/12/14 13:06:43;;;;;;;1.93;1.50;;;;;;;;;;4933408;29;20188;-77
2021/12/14 13:09:09;;;;;;;1.23;1.07;;;;;;;;;;4929888;29;20266;-77
2021/12/14 13:11:37;;;;;;;1.43;1.17;;;;;;;;;;4946071;28;20192;-77
2021/12/14 13:14:09;;;;;;;2.10;1.73;;;;;;;;;;4923512;29;20363;-76
2021/12/14 13:16:36;;;;;;;0.90;0.70;;;;;;;;;;4947362;28;20185;-77
2021/12/14 13:19:13;;;;;;;1.47;1.23;;;;;;;;;;4928432;29;20181;-76
2021/12/14 13:21:48;;;;;;;1.63;1.53;;;;;;;;;;4949817;29;20270;-77
2021/12/14 13:24:17;;;;;;;1.00;0.83;;;;;;;;;;4944786;29;20183;-77
2021/12/14 13:27:01;;;;;;;1.60;1.30;;;;;;;;;;4937243;29;20188;-76
2021/12/14 13:29:29;;;;;;;2.50;1.70;;;;;;;;;;4946890;28;20389;-76
2021/12/14 13:31:57;;;;;;;1.43;1.33;;;;;;;;;;4948374;28;20194;-76
2021/12/14 13:34:24;;;;;;;1.10;1.00;;;;;;;;;;4950828;28;20271;-76
2021/12/14 13:36:51;;;;;;;1.40;1.40;;;;;;;;;;4934477;29;20181;-77
2021/12/14 13:39:17;;;;;;;1.23;1.10;;;;;;;;;;4932886;29;20185;-77
2021/12/14 13:42:01;;;;;;;1.40;1.10;;;;;;;;;;4930293;29;20187;-77
2021/12/14 13:44:27;;;;;;;0.80;0.80;;;;;;;;;;4947012;28;20225;-76
2021/12/14 13:46:54;;;;;;;1.00;1.00;;;;;;;;;;4932499;29;20232;-76
2021/12/14 13:49:19;;;;;;;1.37;1.10;;;;;;;;;;4940108;29;20209;-77
2021/12/14 13:51:44;;;;;;;0.83;0.83;;;;;;;;;;4935004;29;20275;-76
2021/12/14 13:54:10;;;;;;;0.83;0.83;;;;;;;;;;4949436;28;20216;-76
2021/12/14 13:56:38;;;;;;;1.30;1.10;;;;;;;;;;4930857;29;20299;-77
2021/12/14 13:59:04;;;;;;;1.30;1.20;;;;;;;;;;4944154;28;20186;-76
2021/12/14 14:01:31;;;;;;;1.93;1.60;;;;;;;;;;4936592;29;20196;-77
2021/12/14 14:04:01;;;;;;;2.30;2.10;;;;;;;;;;4934113;29;20185;-77
2021/12/14 14:06:26;;;;;;;1.97;1.80;;;;;;;;;;4925924;29;20189;-76
2021/12/14 14:09:00;;;;;;;2.57;2.20;;;;;;;;;;4948542;28;20368;-77
2021/12/14 14:11:30;;;;;;;3.07;2.77;;;;;;;;;;4950099;28;20190;-77
2021/12/14 14:13:57;;;;;;;2.07;1.80;;;;;;;;;;4932617;29;20244;-77
2021/12/14 14:16:23;;;;;;;1.73;1.50;;;;;;;;;;4931002;29;20184;-76
2021/12/14 14:18:50;;;;;;;1.87;1.67;;;;;;;;;;4928955;29;20189;-77
2021/12/14 14:21:17;;;;;;;2.33;1.83;;;;;;;;;;4931090;29;20181;-76
2021/12/14 14:23:47;;;;;;;2.90;2.00;;;;;;;;;;4931282;29;20298;-77
2021/12/14 14:26:12;;;;;;;2.87;2.17;;;;;;;;;;4939572;29;20227;-76
2021/12/14 14:28:47;;;;;;;2.33;2.13;;;;;;;;;;4936621;29;20212;-77
2021/12/14 14:31:14;;;;;;;2.53;2.30;;;;;;;;;;4941154;29;20206;-77
2021/12/14 14:33:52;;;;;;;3.03;2.20;;;;;;;;;;4940793;29;20191;-76
2021/12/14 14:36:20;;;;;;;2.53;2.23;;;;;;;;;;4931388;29;20239;-77
2021/12/14 14:38:46;;;;;;;2.10;2.00;;;;;;;;;;4950644;28;20177;-76
2021/12/14 14:41:14;;;;;;;2.70;1.90;;;;;;;;;;4934760;29;20210;-77
2021/12/14 14:43:58;;;;;;;1.60;1.50;;;;;;;;;;4932711;29;20239;-77
2021/12/14 14:46:53;;;;;;;1.70;1.57;;;;;;;;;;4947153;28;20198;-77
2021/12/14 14:49:44;;;;;;;2.00;1.80;;;;;;;;;;4924552;29;20204;-76
2021/12/14 14:52:12;;;;;;;2.20;2.00;;;;;;;;;;4938424;28;20192;-77
2021/12/14 14:54:41;;;;;;;3.67;2.33;;;;;;;;;;4930353;29;20246;-77
2021/12/14 14:57:06;;;;;;;3.37;2.50;;;;;;;;;;4933655;29;20183;-76
2021/12/14 14:59:32;;;;;;;3.90;2.40;;;;;;;;;;4942912;29;20183;-77
2021/12/14 15:01:57;;;;;;;3.40;2.60;;;;;;;;;;4930088;29;20241;-77
2021/12/14 15:04:22;;;;;;;2.43;2.10;;;;;;;;;;4928141;29;20177;-76
2021/12/14 15:06:48;;;;;;;3.03;2.73;;;;;;;;;;4944519;28;20184;-76
2021/12/14 15:09:42;;;;;;;3.47;3.10;;;;;;;;;;4942227;28;20180;-77
2021/12/14 15:12:16;;;;;;;3.47;3.17;;;;;;;;;;4924844;29;20202;-76
2021/12/14 15:14:45;;;;;;;3.53;2.90;;;;;;;;;;4938659;28;20245;-77
2021/12/14 15:17:11;;;;;;;4.13;3.40;;;;;;;;;;4930450;29;20179;-76
2021/12/14 15:19:40;;;;;;;3.43;2.70;;;;;;;;;;4932693;29;20210;-77
2021/12/14 15:22:08;;;;;;;3.97;3.47;;;;;;;;;;4938058;28;20462;-77
2021/12/14 15:24:33;;;;;;;7.23;4.47;;;;;;;;;;4929283;29;20253;-77
2021/12/14 15:27:11;;;;;;;7.90;4.57;;;;;;;;;;4932304;29;20198;-76
2021/12/14 15:29:39;;;;;;;14.60;5.80;;;;;;;;;;4953199;28;20187;-77